Time;durP1;ratioP1;P1;durP2;ratioP2;P2;SDS_P1;SDS_P2;PMS_P1;PMS_P2;Temp;Humidity;BMP_temperature;BMP_pressure;BME280_temperature;BME280_humidity;BME280_pressure;Samples;Min_cycle;Max_cycle;Signal;HPM_P1;HPM_P2
2023/12/30 00:00:35;;;;;;;0.00;0.00;;;6.90;85.40;;;;;;5061580;28;20044;-69
2023/12/30 00:03:01;;;;;;;0.00;0.00;;;7.00;85.00;;;;;;5081366;28;20041;-69
2023/12/30 00:05:28;;;;;;;0.00;0.00;;;7.00;84.80;;;;;;5069188;28;20127;-69
2023/12/30 00:07:54;;;;;;;0.00;0.00;;;7.00;84.60;;;;;;5068242;28;20053;-69
2023/12/30 00:10:20;;;;;;;0.20;0.20;;;7.00;84.70;;;;;;5068742;28;20410;-69
2023/12/30 00:12:45;;;;;;;0.00;0.00;;;7.10;84.60;;;;;;5080786;28;20529;-69
2023/12/30 00:15:11;;;;;;;0.00;0.00;;;7.10;83.90;;;;;;5069348;28;20059;-69
2023/12/30 00:17:36;;;;;;;0.10;0.10;;;7.00;83.80;;;;;;5068515;28;20040;-69
2023/12/30 00:20:03;;;;;;;0.10;0.10;;;7.10;84.10;;;;;;5068682;28;20041;-69
2023/12/30 00:22:29;;;;;;;0.00;0.00;;;7.00;84.10;;;;;;5068452;28;20048;-69
2023/12/30 00:24:54;;;;;;;0.08;0.08;;;6.90;84.20;;;;;;5051050;28;20387;-68
2023/12/30 00:27:20;;;;;;;0.10;0.10;;;7.00;84.20;;;;;;5068726;28;20060;-68
2023/12/30 00:29:45;;;;;;;0.00;0.00;;;7.00;83.90;;;;;;5068189;28;20847;-69
2023/12/30 00:32:11;;;;;;;0.10;0.10;;;7.00;83.60;;;;;;5068669;28;20044;-68
2023/12/30 00:34:37;;;;;;;0.00;0.00;;;7.00;83.20;;;;;;5068310;28;20119;-69
2023/12/30 00:37:02;;;;;;;0.88;0.88;;;7.00;83.50;;;;;;5069323;28;20045;-68
2023/12/30 00:39:28;;;;;;;0.00;0.00;;;7.00;83.30;;;;;;5054279;28;20414;-69
2023/12/30 00:41:53;;;;;;;3.92;1.55;;;7.00;83.40;;;;;;5065483;28;20044;-68
2023/12/30 00:44:19;;;;;;;0.00;0.00;;;7.10;83.50;;;;;;5067907;28;20083;-68
2023/12/30 00:46:44;;;;;;;0.00;0.00;;;7.00;83.40;;;;;;5068048;28;20044;-67
2023/12/30 00:49:11;;;;;;;0.00;0.00;;;7.00;83.70;;;;;;5068937;28;20657;-67
2023/12/30 00:51:37;;;;;;;0.40;0.35;;;7.00;83.70;;;;;;5068292;28;20056;-67
2023/12/30 00:54:02;;;;;;;0.00;0.00;;;7.00;83.50;;;;;;5068737;28;20423;-68
2023/12/30 00:56:28;;;;;;;0.00;0.00;;;7.10;83.00;;;;;;5066817;28;20114;-68
2023/12/30 00:58:54;;;;;;;0.00;0.00;;;7.00;82.90;;;;;;5054750;28;20520;-67
2023/12/30 01:01:19;;;;;;;0.00;0.00;;;7.10;82.70;;;;;;5076654;28;20040;-67
2023/12/30 01:03:45;;;;;;;0.10;0.10;;;7.00;82.10;;;;;;5076732;28;20032;-67
2023/12/30 01:06:10;;;;;;;0.00;0.00;;;7.10;81.90;;;;;;5070026;28;20402;-67
2023/12/30 01:08:36;;;;;;;0.10;0.10;;;7.10;81.40;;;;;;5068328;28;20089;-67
2023/12/30 01:11:03;;;;;;;0.00;0.00;;;7.00;80.80;;;;;;5069512;28;20036;-67
2023/12/30 01:13:28;;;;;;;0.00;0.00;;;7.10;80.20;;;;;;5068829;28;20052;-67
2023/12/30 01:15:54;;;;;;;0.00;0.00;;;7.10;80.20;;;;;;5068339;28;20043;-67
2023/12/30 01:18:20;;;;;;;0.00;0.00;;;7.00;80.00;;;;;;5068372;28;20048;-67
2023/12/30 01:20:45;;;;;;;1.20;0.88;;;7.00;80.00;;;;;;5068471;28;20032;-67
2023/12/30 01:23:11;;;;;;;0.00;0.00;;;7.00;80.20;;;;;;5067811;28;20032;-67
2023/12/30 01:25:38;;;;;;;0.00;0.00;;;7.00;80.30;;;;;;5068574;28;20053;-67
2023/12/30 01:28:04;;;;;;;0.00;0.00;;;6.90;80.90;;;;;;5079384;28;20044;-67
2023/12/30 01:30:30;;;;;;;0.10;0.10;;;6.90;81.40;;;;;;5068452;28;20047;-67
2023/12/30 01:32:56;;;;;;;0.30;0.30;;;6.90;81.50;;;;;;5067885;28;20480;-68
2023/12/30 01:35:21;;;;;;;0.00;0.00;;;6.90;81.80;;;;;;5066959;28;20033;-67
2023/12/30 01:37:47;;;;;;;0.00;0.00;;;7.00;81.60;;;;;;5067661;28;20116;-67
2023/12/30 01:40:13;;;;;;;0.00;0.00;;;7.00;81.90;;;;;;5067766;28;20174;-68
2023/12/30 01:42:42;;;;;;;0.00;0.00;;;7.00;82.10;;;;;;5049604;28;20040;-68
2023/12/30 01:45:08;;;;;;;0.00;0.00;;;7.00;82.30;;;;;;5057379;28;20140;-68
2023/12/30 01:47:35;;;;;;;1.35;0.45;;;7.00;82.20;;;;;;5050091;28;20550;-67
2023/12/30 01:50:03;;;;;;;0.20;0.20;;;7.00;82.30;;;;;;5067437;28;20041;-68
2023/12/30 01:52:29;;;;;;;0.10;0.10;;;7.00;82.30;;;;;;5063100;28;20502;-67
2023/12/30 01:54:55;;;;;;;1.10;1.00;;;7.10;82.00;;;;;;5050148;28;20158;-68
2023/12/30 01:57:20;;;;;;;0.17;0.17;;;7.10;81.90;;;;;;5067677;28;20048;-67
2023/12/30 01:59:47;;;;;;;0.05;0.05;;;7.20;81.70;;;;;;5058914;28;20495;-68
2023/12/30 02:02:13;;;;;;;0.20;0.20;;;7.20;81.40;;;;;;5070282;28;20109;-65
2023/12/30 02:04:39;;;;;;;0.43;0.43;;;7.10;81.40;;;;;;5066710;28;20502;-69
2023/12/30 02:07:05;;;;;;;0.00;0.00;;;7.10;81.50;;;;;;5058290;28;20113;-66
2023/12/30 02:09:30;;;;;;;0.00;0.00;;;7.10;81.40;;;;;;5049755;28;20037;-67
2023/12/30 02:11:56;;;;;;;0.00;0.00;;;7.10;81.70;;;;;;5068059;28;20040;-68
2023/12/30 02:14:29;;;;;;;0.20;0.20;;;7.10;81.80;;;;;;5078617;28;20098;-68
2023/12/30 02:16:55;;;;;;;0.00;0.00;;;7.10;81.70;;;;;;5071242;28;20457;-68
2023/12/30 02:19:21;;;;;;;0.08;0.08;;;7.20;81.70;;;;;;5072623;28;20037;-67
2023/12/30 02:21:47;;;;;;;0.00;0.00;;;7.20;81.60;;;;;;5067480;28;20166;-68
2023/12/30 02:24:13;;;;;;;0.08;0.08;;;7.10;81.40;;;;;;5057332;28;20043;-68
2023/12/30 02:26:39;;;;;;;0.00;0.00;;;7.10;81.70;;;;;;5084060;28;20047;-68
2023/12/30 02:29:06;;;;;;;0.00;0.00;;;7.10;81.40;;;;;;5076187;28;20044;-68
2023/12/30 02:31:31;;;;;;;0.00;0.00;;;7.10;81.60;;;;;;5067503;28;20041;-68
2023/12/30 02:33:57;;;;;;;0.00;0.00;;;7.20;81.60;;;;;;5049684;28;20781;-68
2023/12/30 02:36:23;;;;;;;0.00;0.00;;;7.10;82.00;;;;;;5061771;28;20138;-67
2023/12/30 02:38:49;;;;;;;0.00;0.00;;;7.10;82.00;;;;;;5063758;28;20044;-67
2023/12/30 02:41:14;;;;;;;0.10;0.10;;;7.10;81.90;;;;;;5063517;28;20040;-68
2023/12/30 02:43:57;;;;;;;0.00;0.00;;;7.10;81.80;;;;;;5057824;28;20041;-68
2023/12/30 02:46:22;;;;;;;0.00;0.00;;;7.10;81.60;;;;;;5064601;28;20037;-67
2023/12/30 02:48:48;;;;;;;0.00;0.00;;;7.00;81.80;;;;;;5071570;28;20178;-68
2023/12/30 02:51:15;;;;;;;0.10;0.10;;;7.00;82.10;;;;;;5072284;28;20108;-67
2023/12/30 02:53:41;;;;;;;0.15;0.15;;;7.00;82.50;;;;;;5073305;28;20044;-68
2023/12/30 02:56:07;;;;;;;0.00;0.00;;;7.10;82.50;;;;;;5070800;28;20037;-68
2023/12/30 02:58:32;;;;;;;0.50;0.50;;;7.10;82.50;;;;;;5070557;28;20072;-68
2023/12/30 03:00:58;;;;;;;0.10;0.10;;;7.10;82.20;;;;;;5070705;28;20075;-68
2023/12/30 03:03:23;;;;;;;0.20;0.20;;;7.10;82.40;;;;;;5069725;28;20040;-68
2023/12/30 03:05:49;;;;;;;0.00;0.00;;;7.20;82.10;;;;;;5069885;28;20045;-68
2023/12/30 03:08:15;;;;;;;0.00;0.00;;;7.30;82.00;;;;;;5070742;28;20105;-68
2023/12/30 03:10:40;;;;;;;0.35;0.35;;;7.20;82.10;;;;;;5069604;28;20037;-67
2023/12/30 03:13:06;;;;;;;0.00;0.00;;;7.30;82.10;;;;;;5072491;28;20049;-68
2023/12/30 03:15:31;;;;;;;2.40;1.95;;;7.20;82.00;;;;;;5074056;28;20032;-68
2023/12/30 03:17:57;;;;;;;0.00;0.00;;;7.20;81.90;;;;;;5070052;28;20039;-68
2023/12/30 03:20:22;;;;;;;0.00;0.00;;;7.10;81.80;;;;;;5069056;28;20051;-68
2023/12/30 03:22:48;;;;;;;0.10;0.10;;;7.10;81.80;;;;;;5069660;28;20085;-68
2023/12/30 03:25:14;;;;;;;0.00;0.00;;;7.20;81.70;;;;;;5068769;28;20044;-68
2023/12/30 03:27:39;;;;;;;0.75;0.75;;;7.20;81.60;;;;;;5069035;28;20438;-68
2023/12/30 03:30:06;;;;;;;0.00;0.00;;;7.10;81.50;;;;;;5069842;28;20044;-68
2023/12/30 03:32:31;;;;;;;0.00;0.00;;;7.10;81.60;;;;;;5069319;28;20048;-68
2023/12/30 03:34:57;;;;;;;0.00;0.00;;;7.10;81.20;;;;;;5069359;28;20044;-68
2023/12/30 03:37:22;;;;;;;1.95;1.77;;;7.10;81.50;;;;;;5061701;28;20388;-68
2023/12/30 03:39:49;;;;;;;0.00;0.00;;;7.10;81.50;;;;;;5071924;28;20267;-67
2023/12/30 03:42:15;;;;;;;1.00;1.00;;;7.30;81.40;;;;;;5073501;28;20626;-68
2023/12/30 03:44:40;;;;;;;0.10;0.10;;;7.20;81.20;;;;;;5069188;28;20040;-68
2023/12/30 03:47:06;;;;;;;0.10;0.10;;;7.10;81.30;;;;;;5069054;28;20487;-68
2023/12/30 03:49:31;;;;;;;0.93;0.50;;;7.10;81.30;;;;;;5070954;28;20048;-68
2023/12/30 03:51:57;;;;;;;0.45;0.45;;;7.10;81.60;;;;;;5076156;28;20122;-67
2023/12/30 03:54:23;;;;;;;0.00;0.00;;;7.00;81.70;;;;;;5053812;28;20131;-68
2023/12/30 03:56:48;;;;;;;0.75;0.75;;;7.10;81.70;;;;;;5068051;28;20048;-68
2023/12/30 03:59:14;;;;;;;0.00;0.00;;;7.00;81.60;;;;;;5068284;28;20142;-67
2023/12/30 04:01:42;;;;;;;0.00;0.00;;;7.00;81.70;;;;;;5068664;28;20044;-67
2023/12/30 04:04:07;;;;;;;0.03;0.03;;;7.00;81.90;;;;;;5069072;28;20057;-68
2023/12/30 04:06:33;;;;;;;0.00;0.00;;;7.00;82.00;;;;;;5050550;28;20040;-68
2023/12/30 04:08:58;;;;;;;0.68;0.68;;;7.00;82.00;;;;;;5068591;28;20064;-68
2023/12/30 04:11:24;;;;;;;0.00;0.00;;;7.00;82.10;;;;;;5068751;28;20054;-67
2023/12/30 04:13:50;;;;;;;0.75;0.75;;;6.90;82.30;;;;;;5068858;28;20106;-67
2023/12/30 04:16:15;;;;;;;2.83;2.55;;;6.90;82.20;;;;;;5059234;28;20776;-68
2023/12/30 04:18:41;;;;;;;0.00;0.00;;;6.90;82.20;;;;;;5068340;28;20044;-68
2023/12/30 04:21:06;;;;;;;0.00;0.00;;;6.90;82.40;;;;;;5068333;28;20064;-68
2023/12/30 04:23:32;;;;;;;0.00;0.00;;;6.90;82.40;;;;;;5067699;28;20047;-68
2023/12/30 04:25:58;;;;;;;0.00;0.00;;;6.90;82.50;;;;;;5068039;28;20029;-68
2023/12/30 04:28:23;;;;;;;0.00;0.00;;;6.90;82.60;;;;;;5068581;28;20119;-68
2023/12/30 04:30:49;;;;;;;0.00;0.00;;;6.90;82.90;;;;;;5068229;28;20509;-67
2023/12/30 04:33:14;;;;;;;0.75;0.75;;;6.90;82.90;;;;;;5062680;28;20139;-68
2023/12/30 04:35:41;;;;;;;0.00;0.00;;;7.00;82.80;;;;;;5062508;28;20417;-67
2023/12/30 04:38:07;;;;;;;0.00;0.00;;;7.00;82.70;;;;;;5066250;28;20037;-68
2023/12/30 04:40:32;;;;;;;0.30;0.30;;;7.00;82.80;;;;;;5067876;28;20517;-68
2023/12/30 04:42:58;;;;;;;0.00;0.00;;;7.00;83.00;;;;;;5067292;28;20119;-67
2023/12/30 04:45:23;;;;;;;0.00;0.00;;;6.90;82.90;;;;;;5067647;28;20040;-67
2023/12/30 04:47:49;;;;;;;0.10;0.10;;;7.00;83.10;;;;;;5067402;28;20071;-67
2023/12/30 04:50:15;;;;;;;0.00;0.00;;;6.90;83.00;;;;;;5068208;28;20051;-67
2023/12/30 04:52:42;;;;;;;0.08;0.08;;;7.00;83.20;;;;;;5066354;28;20048;-67
2023/12/30 04:55:08;;;;;;;0.00;0.00;;;7.00;83.10;;;;;;5049176;28;20902;-67
2023/12/30 04:57:33;;;;;;;0.10;0.10;;;7.10;83.10;;;;;;5067004;28;20056;-68
2023/12/30 04:59:59;;;;;;;0.00;0.00;;;7.00;82.90;;;;;;5067501;28;20044;-67
2023/12/30 05:02:25;;;;;;;0.00;0.00;;;6.90;82.90;;;;;;5067179;28;20045;-67
2023/12/30 05:04:51;;;;;;;0.25;0.25;;;7.00;83.10;;;;;;5067744;28;20037;-67
2023/12/30 05:07:16;;;;;;;0.05;0.05;;;7.00;83.00;;;;;;5067401;28;20040;-67
2023/12/30 05:09:42;;;;;;;0.00;0.00;;;7.00;82.80;;;;;;5036776;28;20602;-67
2023/12/30 05:12:07;;;;;;;0.00;0.00;;;7.00;82.80;;;;;;5057399;28;20040;-67
2023/12/30 05:14:36;;;;;;;0.10;0.10;;;7.10;82.50;;;;;;5067429;28;20040;-68
2023/12/30 05:17:02;;;;;;;0.00;0.00;;;7.10;82.40;;;;;;5067613;28;20043;-67
2023/12/30 05:19:28;;;;;;;0.00;0.00;;;7.10;82.50;;;;;;5067164;28;20554;-67
2023/12/30 05:21:53;;;;;;;0.50;0.50;;;7.00;82.80;;;;;;5065945;28;20040;-68
2023/12/30 05:24:19;;;;;;;0.15;0.15;;;7.10;82.80;;;;;;5045764;28;20095;-67
2023/12/30 05:26:44;;;;;;;1.10;0.98;;;7.10;82.50;;;;;;5052407;28;20105;-68
2023/12/30 05:29:10;;;;;;;0.00;0.00;;;7.20;82.30;;;;;;5067357;28;20044;-67
2023/12/30 05:31:36;;;;;;;0.00;0.00;;;7.20;81.50;;;;;;5049461;28;20044;-68
2023/12/30 05:34:01;;;;;;;0.00;0.00;;;7.10;81.70;;;;;;5065692;28;20063;-67
2023/12/30 05:36:27;;;;;;;0.00;0.00;;;7.10;82.00;;;;;;5067133;28;20093;-67
2023/12/30 05:38:52;;;;;;;0.00;0.00;;;7.10;81.90;;;;;;5066940;28;20060;-67
2023/12/30 05:41:18;;;;;;;0.00;0.00;;;7.20;81.90;;;;;;5066169;28;20160;-67
2023/12/30 05:43:44;;;;;;;0.00;0.00;;;7.10;82.20;;;;;;5066900;28;20407;-67
2023/12/30 05:46:16;;;;;;;0.08;0.08;;;7.10;82.70;;;;;;5067461;28;20148;-67
2023/12/30 05:48:42;;;;;;;;;;;7.10;82.80;;;;;;5058579;28;20036;-67
2023/12/30 05:51:07;;;;;;;0.15;0.15;;;7.10;83.10;;;;;;5058897;28;20268;-68
2023/12/30 05:53:33;;;;;;;0.00;0.00;;;7.10;83.30;;;;;;5060540;28;20069;-68
2023/12/30 05:55:59;;;;;;;0.22;0.22;;;7.10;83.40;;;;;;5064832;28;20036;-67
2023/12/30 05:58:24;;;;;;;0.00;0.00;;;7.10;82.90;;;;;;5067084;28;20044;-67
2023/12/30 06:00:50;;;;;;;1.13;1.13;;;7.10;83.20;;;;;;5065261;28;20036;-67
2023/12/30 06:03:16;;;;;;;0.15;0.15;;;7.10;83.30;;;;;;5066284;28;20094;-67
2023/12/30 06:05:41;;;;;;;0.00;0.00;;;7.20;83.10;;;;;;5065815;28;20041;-67
2023/12/30 06:08:07;;;;;;;0.00;0.00;;;7.20;82.90;;;;;;5065536;28;20052;-67
2023/12/30 06:10:32;;;;;;;0.00;0.00;;;7.20;82.90;;;;;;5059931;28;20041;-68
2023/12/30 06:12:58;;;;;;;0.25;0.25;;;7.20;82.90;;;;;;5064334;28;20182;-67
2023/12/30 06:15:24;;;;;;;0.20;0.20;;;7.20;82.60;;;;;;5064306;28;20090;-67
2023/12/30 06:17:50;;;;;;;0.00;0.00;;;7.20;82.70;;;;;;5065765;28;20052;-67
2023/12/30 06:20:15;;;;;;;0.00;0.00;;;7.10;82.70;;;;;;5066562;28;20569;-67
2023/12/30 06:22:41;;;;;;;0.00;0.00;;;7.10;82.90;;;;;;5065354;28;20040;-67
2023/12/30 06:25:07;;;;;;;0.10;0.10;;;7.10;83.10;;;;;;5064624;28;20079;-67
2023/12/30 06:27:32;;;;;;;0.10;0.10;;;7.10;83.20;;;;;;5053572;28;20144;-67
2023/12/30 06:29:58;;;;;;;0.30;0.30;;;7.00;83.50;;;;;;5066560;28;20040;-68
2023/12/30 06:32:23;;;;;;;0.15;0.15;;;7.00;83.40;;;;;;5064035;28;20127;-67
2023/12/30 06:34:49;;;;;;;0.00;0.00;;;7.00;83.30;;;;;;5062418;28;20072;-67
2023/12/30 06:37:15;;;;;;;0.00;0.00;;;7.00;83.30;;;;;;5066357;28;20032;-67
2023/12/30 06:39:40;;;;;;;0.00;0.00;;;7.00;83.40;;;;;;5066042;28;20059;-67
2023/12/30 06:42:06;;;;;;;0.00;0.00;;;6.90;83.40;;;;;;5065289;28;20062;-67
2023/12/30 06:44:32;;;;;;;0.00;0.00;;;6.90;83.20;;;;;;5064713;28;20068;-67
2023/12/30 06:46:57;;;;;;;0.05;0.05;;;6.90;83.30;;;;;;5046959;28;20041;-68
2023/12/30 06:49:24;;;;;;;0.00;0.00;;;7.00;83.20;;;;;;5044747;28;20045;-67
2023/12/30 06:51:49;;;;;;;0.00;0.00;;;7.00;83.40;;;;;;5064734;28;20048;-67
2023/12/30 06:54:15;;;;;;;0.80;0.80;;;6.90;83.40;;;;;;5064661;28;20055;-67
2023/12/30 06:56:44;;;;;;;0.00;0.00;;;6.90;83.60;;;;;;5046402;28;20530;-67
2023/12/30 06:59:09;;;;;;;0.00;0.00;;;6.90;83.50;;;;;;5061342;28;20112;-67
2023/12/30 07:01:39;;;;;;;0.00;0.00;;;6.90;83.60;;;;;;5064914;28;20135;-67
2023/12/30 07:04:04;;;;;;;0.00;0.00;;;6.90;84.00;;;;;;5064200;28;20071;-67
2023/12/30 07:06:30;;;;;;;9.90;1.48;;;6.80;84.50;;;;;;5064732;28;20041;-67
2023/12/30 07:08:56;;;;;;;0.05;0.05;;;6.90;84.60;;;;;;5062935;28;20037;-67
2023/12/30 07:11:21;;;;;;;0.00;0.00;;;6.80;84.60;;;;;;5064745;28;20124;-67
2023/12/30 07:13:47;;;;;;;0.00;0.00;;;6.90;84.70;;;;;;5064035;28;20036;-67
2023/12/30 07:16:15;;;;;;;0.00;0.00;;;6.90;84.70;;;;;;5064551;28;20701;-67
2023/12/30 07:18:41;;;;;;;0.20;0.20;;;6.80;84.80;;;;;;5063879;28;20502;-67
2023/12/30 07:21:06;;;;;;;0.00;0.00;;;6.90;84.70;;;;;;5064983;28;20075;-67
2023/12/30 07:23:32;;;;;;;0.00;0.00;;;6.90;84.50;;;;;;5064246;28;20032;-67
2023/12/30 07:25:58;;;;;;;0.00;0.00;;;6.90;84.20;;;;;;5064856;28;20102;-67
2023/12/30 07:28:24;;;;;;;0.22;0.22;;;6.90;84.30;;;;;;5063561;28;20752;-67
2023/12/30 07:30:50;;;;;;;0.03;0.03;;;6.90;84.30;;;;;;5065006;28;20053;-67
2023/12/30 07:33:16;;;;;;;0.00;0.00;;;6.90;84.20;;;;;;5067425;28;20690;-67
2023/12/30 07:35:42;;;;;;;0.00;0.00;;;6.90;84.30;;;;;;5069191;28;20036;-67
2023/12/30 07:38:08;;;;;;;0.00;0.00;;;7.00;84.00;;;;;;5069176;28;20048;-67
2023/12/30 07:40:33;;;;;;;0.00;0.00;;;7.00;84.10;;;;;;5067966;28;20036;-68
2023/12/30 07:42:59;;;;;;;0.00;0.00;;;7.00;83.90;;;;;;5062567;28;20036;-67
2023/12/30 07:45:25;;;;;;;0.00;0.00;;;6.90;83.90;;;;;;5069556;28;20059;-68
2023/12/30 07:47:50;;;;;;;0.00;0.00;;;6.80;84.00;;;;;;5068776;28;20690;-67
2023/12/30 07:50:16;;;;;;;0.00;0.00;;;6.90;83.90;;;;;;5069212;28;20093;-67
2023/12/30 07:52:42;;;;;;;0.00;0.00;;;6.80;83.90;;;;;;5063699;28;20055;-67
2023/12/30 07:55:08;;;;;;;0.22;0.22;;;6.80;84.30;;;;;;5068992;28;20032;-67
2023/12/30 07:57:34;;;;;;;2.28;1.45;;;6.70;84.30;;;;;;5068039;28;20044;-67
2023/12/30 08:00:00;;;;;;;0.10;0.10;;;6.70;84.20;;;;;;5069182;28;20406;-67
2023/12/30 08:02:26;;;;;;;0.00;0.00;;;6.60;84.30;;;;;;5068635;28;20043;-67
2023/12/30 08:04:54;;;;;;;0.00;0.00;;;6.60;84.40;;;;;;5068994;28;20033;-67
2023/12/30 08:07:20;;;;;;;0.00;0.00;;;6.60;84.60;;;;;;5052018;28;20041;-67
2023/12/30 08:09:45;;;;;;;0.00;0.00;;;6.60;84.70;;;;;;5068819;28;20047;-67
2023/12/30 08:12:11;;;;;;;0.00;0.00;;;6.60;84.70;;;;;;5068886;28;20044;-67
2023/12/30 08:14:37;;;;;;;0.00;0.00;;;6.60;84.60;;;;;;5066924;28;20033;-67
2023/12/30 08:17:03;;;;;;;0.00;0.00;;;6.60;84.70;;;;;;5069419;28;20418;-68
2023/12/30 08:19:29;;;;;;;0.00;0.00;;;6.60;84.70;;;;;;5061724;28;20051;-68
2023/12/30 08:21:55;;;;;;;0.30;0.30;;;6.60;84.80;;;;;;5068612;28;20633;-68
2023/12/30 08:24:20;;;;;;;0.00;0.00;;;6.60;84.80;;;;;;5069673;28;20123;-67
2023/12/30 08:26:46;;;;;;;0.10;0.10;;;6.60;84.70;;;;;;5068785;28;20048;-67
2023/12/30 08:29:13;;;;;;;0.08;0.08;;;6.60;84.70;;;;;;5062076;28;20159;-67
2023/12/30 08:31:45;;;;;;;0.00;0.00;;;6.70;84.50;;;;;;5062283;28;20077;-68
2023/12/30 08:34:12;;;;;;;0.00;0.00;;;6.80;84.60;;;;;;5068037;28;20085;-68
2023/12/30 08:36:37;;;;;;;0.00;0.00;;;6.70;84.60;;;;;;5069231;28;20064;-68
2023/12/30 08:39:03;;;;;;;0.00;0.00;;;6.70;84.70;;;;;;5051775;28;20094;-68
2023/12/30 08:41:28;;;;;;;1.20;1.10;;;6.70;84.60;;;;;;5069134;28;20040;-68
2023/12/30 08:43:56;;;;;;;0.10;0.10;;;6.80;84.50;;;;;;5067022;28;20043;-69
2023/12/30 08:46:22;;;;;;;0.00;0.00;;;6.80;84.40;;;;;;5068081;28;20056;-68
2023/12/30 08:48:47;;;;;;;0.10;0.10;;;6.90;84.40;;;;;;5068134;28;20048;-68
2023/12/30 08:51:13;;;;;;;0.88;0.85;;;6.90;84.40;;;;;;5067693;28;20766;-68
2023/12/30 08:53:39;;;;;;;0.00;0.00;;;6.90;84.40;;;;;;5065453;28;20036;-67
2023/12/30 08:56:05;;;;;;;0.00;0.00;;;6.90;84.20;;;;;;5068367;28;20080;-68
2023/12/30 08:58:30;;;;;;;0.10;0.10;;;7.00;84.20;;;;;;5049793;28;20131;-69
2023/12/30 09:00:56;;;;;;;0.00;0.00;;;7.10;84.70;;;;;;5058584;28;20462;-67
2023/12/30 09:03:22;;;;;;;0.00;0.00;;;7.20;84.40;;;;;;5067338;28;20056;-68
2023/12/30 09:05:47;;;;;;;0.00;0.00;;;7.20;84.10;;;;;;5067500;28;20374;-68
2023/12/30 09:08:13;;;;;;;0.00;0.00;;;7.20;83.90;;;;;;5067616;28;20037;-68
2023/12/30 09:10:39;;;;;;;0.00;0.00;;;7.10;83.90;;;;;;5062732;28;20037;-67
2023/12/30 09:13:04;;;;;;;0.10;0.10;;;7.20;83.80;;;;;;5067440;28;20574;-66
2023/12/30 09:15:30;;;;;;;0.10;0.10;;;7.10;83.90;;;;;;5067588;28;20040;-66
2023/12/30 09:17:57;;;;;;;0.00;0.00;;;7.20;83.70;;;;;;5067698;28;20044;-67
2023/12/30 09:20:24;;;;;;;0.00;0.00;;;7.20;83.80;;;;;;5063322;28;20051;-67
2023/12/30 09:22:51;;;;;;;0.00;0.00;;;7.10;83.90;;;;;;5066598;28;20053;-67
2023/12/30 09:25:16;;;;;;;0.10;0.10;;;7.20;83.90;;;;;;5051696;28;20072;-67
2023/12/30 09:27:42;;;;;;;0.00;0.00;;;7.20;83.80;;;;;;5046889;28;20338;-67
2023/12/30 09:30:08;;;;;;;0.00;0.00;;;7.30;83.90;;;;;;5064150;28;20041;-67
2023/12/30 09:32:34;;;;;;;0.00;0.00;;;7.20;83.80;;;;;;5068034;28;20040;-67
2023/12/30 09:35:02;;;;;;;0.00;0.00;;;7.20;83.70;;;;;;5067882;28;20094;-67
2023/12/30 09:37:28;;;;;;;0.00;0.00;;;7.20;83.70;;;;;;5047126;28;20771;-67
2023/12/30 09:39:54;;;;;;;1.65;1.55;;;7.20;83.80;;;;;;5058642;28;20047;-67
2023/12/30 09:42:20;;;;;;;0.00;0.00;;;7.20;83.70;;;;;;5065182;28;20041;-67
2023/12/30 09:44:46;;;;;;;0.00;0.00;;;7.20;83.70;;;;;;5066216;28;20041;-66
2023/12/30 09:47:13;;;;;;;0.00;0.00;;;7.30;83.90;;;;;;5067427;28;20053;-66
2023/12/30 09:49:40;;;;;;;0.10;0.10;;;7.40;83.70;;;;;;5067648;28;20048;-67
2023/12/30 09:52:06;;;;;;;0.00;0.00;;;7.30;83.50;;;;;;5064378;28;20048;-68
2023/12/30 09:54:36;;;;;;;0.63;0.63;;;7.30;83.50;;;;;;5065580;28;20044;-68
2023/12/30 09:57:03;;;;;;;8.13;4.05;;;7.20;83.50;;;;;;5065401;28;20140;-68
2023/12/30 09:59:30;;;;;;;0.00;0.00;;;7.20;83.70;;;;;;5067296;28;20064;-68
2023/12/30 10:01:56;;;;;;;0.00;0.00;;;7.20;83.90;;;;;;5066606;28;20098;-68
2023/12/30 10:04:22;;;;;;;0.00;0.00;;;7.20;84.00;;;;;;5066907;28;20039;-68
2023/12/30 10:06:51;;;;;;;0.00;0.00;;;7.30;84.10;;;;;;5067195;28;20665;-68
2023/12/30 10:09:18;;;;;;;0.00;0.00;;;7.30;84.10;;;;;;5067791;28;20041;-68
2023/12/30 10:11:44;;;;;;;0.00;0.00;;;7.20;84.20;;;;;;5067518;28;20102;-68
2023/12/30 10:14:10;;;;;;;0.10;0.10;;;7.20;84.20;;;;;;5068251;28;20052;-68
2023/12/30 10:16:36;;;;;;;0.10;0.10;;;7.30;84.00;;;;;;5067510;28;20491;-68
2023/12/30 10:19:02;;;;;;;0.10;0.10;;;7.30;84.10;;;;;;5067126;28;20544;-68
2023/12/30 10:21:28;;;;;;;0.00;0.00;;;7.20;84.20;;;;;;5067967;28;20051;-68
2023/12/30 10:23:54;;;;;;;0.00;0.00;;;7.30;83.90;;;;;;5066829;28;20047;-68
2023/12/30 10:26:21;;;;;;;0.00;0.00;;;7.30;84.10;;;;;;5066510;28;20059;-68
2023/12/30 10:28:47;;;;;;;0.00;0.00;;;7.30;84.10;;;;;;5066178;28;20032;-68
2023/12/30 10:31:16;;;;;;;0.00;0.00;;;7.30;84.10;;;;;;5067236;28;20095;-69
2023/12/30 10:33:42;;;;;;;0.20;0.20;;;7.30;84.10;;;;;;5067714;28;20407;-68
2023/12/30 10:36:08;;;;;;;0.10;0.10;;;7.30;84.00;;;;;;5066005;28;20036;-69
2023/12/30 10:38:35;;;;;;;0.63;0.63;;;7.40;84.10;;;;;;5049760;28;20045;-69
2023/12/30 10:41:01;;;;;;;0.00;0.00;;;7.40;84.10;;;;;;5067092;28;20045;-68
2023/12/30 10:43:27;;;;;;;0.10;0.10;;;7.40;84.20;;;;;;5067827;28;20056;-68
2023/12/30 10:46:00;;;;;;;0.90;0.90;;;7.40;84.30;;;;;;5069823;28;20044;-68
2023/12/30 10:48:33;;;;;;;0.40;0.40;;;7.40;84.40;;;;;;5066106;28;20048;-69
2023/12/30 10:51:01;;;;;;;0.10;0.10;;;7.40;84.50;;;;;;5066506;28;20040;-69
2023/12/30 10:53:31;;;;;;;0.63;0.63;;;7.50;84.50;;;;;;5067244;28;20055;-66
2023/12/30 10:56:01;;;;;;;0.00;0.00;;;7.60;84.50;;;;;;5066531;28;20048;-67
2023/12/30 10:58:31;;;;;;;0.00;0.00;;;7.60;84.20;;;;;;5046232;28;20445;-69
2023/12/30 11:01:00;;;;;;;0.10;0.10;;;7.60;84.30;;;;;;5067238;28;20033;-68
2023/12/30 11:03:27;;;;;;;0.00;0.00;;;7.60;84.30;;;;;;5067055;28;20041;-68
2023/12/30 11:06:01;;;;;;;0.00;0.00;;;7.70;84.30;;;;;;5066996;28;20048;-68
2023/12/30 11:08:28;;;;;;;0.00;0.00;;;7.70;84.20;;;;;;5070535;28;20044;-68
2023/12/30 11:10:55;;;;;;;0.10;0.10;;;7.70;84.10;;;;;;5070522;28;20628;-69
2023/12/30 11:13:21;;;;;;;0.08;0.08;;;7.70;83.90;;;;;;5070109;28;20059;-70
2023/12/30 11:15:47;;;;;;;0.43;0.43;;;7.80;83.80;;;;;;5069353;28;20040;-70
2023/12/30 11:18:12;;;;;;;0.15;0.15;;;8.00;83.90;;;;;;5063088;28;20098;-69
2023/12/30 11:20:45;;;;;;;0.00;0.00;;;8.00;83.50;;;;;;5070772;28;20047;-70
2023/12/30 11:23:11;;;;;;;0.20;0.20;;;8.00;83.10;;;;;;5070641;28;20049;-70
2023/12/30 11:25:45;;;;;;;0.00;0.00;;;8.00;82.80;;;;;;5065957;28;20052;-69
2023/12/30 11:28:21;;;;;;;0.00;0.00;;;8.00;83.10;;;;;;5069997;28;20076;-70
2023/12/30 11:30:56;;;;;;;0.00;0.00;;;8.00;83.20;;;;;;5070764;28;20080;-70
2023/12/30 11:33:22;;;;;;;0.00;0.00;;;8.00;83.10;;;;;;5070925;28;20536;-69
2023/12/30 11:35:55;;;;;;;0.00;0.00;;;8.00;83.20;;;;;;5061296;28;20131;-68
2023/12/30 11:38:21;;;;;;;0.32;0.30;;;8.10;83.40;;;;;;5069653;28;20580;-69
2023/12/30 11:40:52;;;;;;;0.00;0.00;;;8.00;84.00;;;;;;5068915;28;20052;-70
2023/12/30 11:43:20;;;;;;;0.00;0.00;;;8.10;84.40;;;;;;5069558;28;20423;-70
2023/12/30 11:45:46;;;;;;;0.00;0.00;;;8.10;84.70;;;;;;5070212;28;20464;-69
2023/12/30 11:48:11;;;;;;;0.10;0.10;;;8.10;84.80;;;;;;5068539;28;20036;-69
2023/12/30 11:50:37;;;;;;;0.00;0.00;;;8.00;85.30;;;;;;5060414;28;20052;-69
2023/12/30 11:53:03;;;;;;;0.00;0.00;;;8.10;85.30;;;;;;5068551;28;20059;-68
2023/12/30 11:55:29;;;;;;;0.00;0.00;;;8.10;85.30;;;;;;5070650;28;20056;-69
2023/12/30 11:57:56;;;;;;;0.00;0.00;;;8.10;85.30;;;;;;5058863;28;20065;-69
2023/12/30 12:00:24;;;;;;;0.05;0.05;;;8.20;85.60;;;;;;5069083;28;20486;-68
2023/12/30 12:02:50;;;;;;;0.00;0.00;;;8.20;85.40;;;;;;5054971;28;20048;-69
2023/12/30 12:05:16;;;;;;;0.00;0.00;;;8.10;85.60;;;;;;5051845;28;20127;-69
2023/12/30 12:07:41;;;;;;;0.00;0.00;;;8.20;85.40;;;;;;5062549;28;20119;-69
2023/12/30 12:10:08;;;;;;;0.00;0.00;;;8.20;85.30;;;;;;5069498;28;20033;-71
2023/12/30 12:12:38;;;;;;;0.10;0.10;;;8.30;85.20;;;;;;5068404;28;20119;-70
2023/12/30 12:15:07;;;;;;;0.80;0.80;;;8.20;85.30;;;;;;5069545;28;20044;-70
2023/12/30 12:17:32;;;;;;;0.00;0.00;;;8.20;85.30;;;;;;5058527;28;20047;-70
2023/12/30 12:19:58;;;;;;;0.00;0.00;;;8.30;85.30;;;;;;5068801;28;20485;-71
2023/12/30 12:22:24;;;;;;;0.00;0.00;;;8.30;85.10;;;;;;5068920;28;20036;-70
2023/12/30 12:24:50;;;;;;;0.00;0.00;;;8.30;85.20;;;;;;5068525;28;20109;-69
2023/12/30 12:27:23;;;;;;;0.00;0.00;;;8.30;85.10;;;;;;5070213;28;20036;-69
2023/12/30 12:29:54;;;;;;;0.00;0.00;;;8.30;84.90;;;;;;5078898;28;20618;-70
2023/12/30 12:32:20;;;;;;;1.10;1.08;;;8.20;84.80;;;;;;5069807;28;20058;-70
2023/12/30 12:34:47;;;;;;;0.30;0.30;;;8.30;84.80;;;;;;5069487;28;20166;-70
2023/12/30 12:37:17;;;;;;;0.80;0.38;;;8.30;84.00;;;;;;5068941;28;20568;-70
2023/12/30 12:39:44;;;;;;;0.00;0.00;;;8.30;84.00;;;;;;5081087;28;20043;-69
2023/12/30 12:42:18;;;;;;;0.05;0.05;;;8.30;83.90;;;;;;5069656;28;20044;-69
2023/12/30 12:44:44;;;;;;;0.00;0.00;;;8.30;83.70;;;;;;5068972;28;20033;-69
2023/12/30 12:47:09;;;;;;;0.03;0.03;;;8.30;83.30;;;;;;5076997;28;20099;-70
2023/12/30 12:49:35;;;;;;;0.30;0.30;;;8.50;83.30;;;;;;5068963;28;20055;-70
2023/12/30 12:52:02;;;;;;;0.00;0.00;;;8.40;83.10;;;;;;5064406;28;20507;-69